Time;durP1;ratioP1;P1;durP2;ratioP2;P2;SDS_P1;SDS_P2;PMS_P1;PMS_P2;Temp;Humidity;BMP_temperature;BMP_pressure;BME280_temperature;BME280_humidity;BME280_pressure;Samples;Min_cycle;Max_cycle;Signal;HPM_P1;HPM_P2
2022/09/20 00:02:01;;;;;;;9.53;3.60;;;;;;;6.67;100.00;100962.28;7388413;19;20419;-59
2022/09/20 00:04:31;;;;;;;9.17;3.80;;;;;;;6.58;100.00;100960.06;7393071;19;20456;-59
2022/09/20 00:07:00;;;;;;;8.60;4.10;;;;;;;6.54;100.00;100975.13;7387414;19;20419;-60
2022/09/20 00:09:30;;;;;;;23.73;4.10;;;;;;;6.51;100.00;100978.41;7393531;19;20419;-57
2022/09/20 00:11:59;;;;;;;12.90;4.53;;;;;;;6.50;100.00;100978.31;7389171;19;20411;-57
2022/09/20 00:14:32;;;;;;;37.20;5.17;;;;;;;6.74;100.00;100978.94;7391311;19;20420;-59
2022/09/20 00:17:01;;;;;;;15.53;4.20;;;;;;;6.85;100.00;100980.47;7390085;19;20435;-60
2022/09/20 00:19:31;;;;;;;12.83;4.30;;;;;;;6.70;100.00;100982.09;7393135;19;20744;-62
2022/09/20 00:22:00;;;;;;;9.80;4.47;;;;;;;6.51;100.00;100986.09;7388153;19;20969;-56
2022/09/20 00:24:30;;;;;;;11.73;4.20;;;;;;;6.44;100.00;100989.06;7391787;19;20948;-56
2022/09/20 00:26:59;;;;;;;13.90;4.00;;;;;;;6.54;100.00;100995.66;7388054;19;20945;-57
2022/09/20 00:29:31;;;;;;;12.10;3.60;;;;;;;6.54;100.00;101011.03;7393216;19;20395;-60
2022/09/20 00:32:00;;;;;;;7.20;3.80;;;;;;;6.49;100.00;101551.69;7388310;19;20414;-57
2022/09/20 00:37:12;;;;;;;16.23;4.47;;;;;;;6.53;100.00;101543.44;7375509;19;20414;-51
2022/09/20 00:39:41;;;;;;;19.80;4.67;;;;;;;6.77;100.00;101547.63;7393053;19;20910;-57
2022/09/20 00:42:13;;;;;;;13.60;4.17;;;;;;;6.67;100.00;101546.09;7388489;19;20446;-59
2022/09/20 00:44:55;;;;;;;12.53;4.80;;;;;;;6.84;100.00;101540.47;7391747;19;20447;-52
2022/09/20 00:47:30;;;;;;;9.90;5.03;;;;;;;7.00;100.00;101542.41;7388035;19;20411;-53
2022/09/20 00:50:03;;;;;;;20.80;4.67;;;;;;;6.99;100.00;101538.03;7393103;19;20387;-61
2022/09/20 00:52:33;;;;;;;17.37;5.13;;;;;;;6.81;100.00;101535.09;7388260;19;20435;-63
2022/09/20 00:55:02;;;;;;;17.53;5.80;;;;;;;6.85;100.00;101541.34;7391078;19;20969;-56
2022/09/20 00:57:34;;;;;;;18.83;5.03;;;;;;;6.76;100.00;101531.31;7388697;19;20431;-59
2022/09/20 01:00:09;;;;;;;17.27;5.37;;;;;;;6.79;100.00;101539.25;7392841;19;20744;-53
2022/09/20 01:02:42;;;;;;;16.30;5.10;;;;;;;6.64;100.00;101533.03;7388471;19;20414;-58
2022/09/20 01:05:12;;;;;;;15.97;4.93;;;;;;;6.58;100.00;101539.53;7391037;19;20414;-56
2022/09/20 01:07:43;;;;;;;9.77;4.60;;;;;;;6.51;100.00;101539.00;7387217;19;20420;-61
2022/09/20 01:10:13;;;;;;;15.50;5.10;;;;;;;6.53;100.00;101537.41;7392835;19;20422;-58
2022/09/20 01:12:45;;;;;;;11.33;4.20;;;;;;;6.72;100.00;101547.31;7387139;19;20420;-55
2022/09/20 01:15:17;;;;;;;14.73;5.30;;;;;;;6.92;100.00;101552.94;7389716;19;20418;-55
2022/09/20 01:17:49;;;;;;;13.20;5.40;;;;;;;7.02;100.00;101548.53;7387639;19;20411;-61
2022/09/20 01:20:21;;;;;;;48.53;7.03;;;;;;;7.18;100.00;101548.69;7392584;19;20426;-61
2022/09/20 01:23:13;;;;;;;17.13;6.13;;;;;;;7.07;100.00;101538.56;7387125;19;20418;-58
2022/09/20 01:26:07;;;;;;;24.87;5.57;;;;;;;7.22;100.00;101537.88;7380848;19;21142;-59
2022/09/20 01:28:41;;;;;;;22.23;5.93;;;;;;;7.06;100.00;101526.53;7395117;19;20423;-59
2022/09/20 01:31:13;;;;;;;13.83;5.43;;;;;;;7.21;100.00;101530.94;7394817;19;20438;-59
2022/09/20 01:33:48;;;;;;;12.50;5.03;;;;;;;7.36;100.00;101531.97;7398396;19;20387;-61
2022/09/20 01:36:22;;;;;;;16.83;6.60;;;;;;;7.00;100.00;101521.00;7394702;19;20411;-56
2022/09/20 01:38:58;;;;;;;11.90;5.93;;;;;;;6.82;100.00;101510.34;7399528;19;20734;-62
2022/09/20 01:41:32;;;;;;;18.27;6.97;;;;;;;6.50;100.00;101517.56;7396802;19;20804;-58
2022/09/20 01:44:10;;;;;;;12.47;5.70;;;;;;;6.38;100.00;101522.72;7397860;19;20394;-54
2022/09/20 01:46:40;;;;;;;17.40;5.83;;;;;;;6.26;100.00;101519.28;7394684;19;20972;-57
2022/09/20 01:49:22;;;;;;;15.33;5.50;;;;;;;6.15;100.00;101524.53;7398646;19;20387;-56
2022/09/20 01:52:12;;;;;;;10.60;5.37;;;;;;;6.26;100.00;101527.84;7393981;19;20434;-58
2022/09/20 01:55:11;;;;;;;8.50;5.30;;;;;;;6.25;100.00;101527.78;7396838;19;20976;-52
2022/09/20 01:58:04;;;;;;;11.07;5.50;;;;;;;6.18;100.00;101524.75;7393432;19;20445;-56
2022/09/20 02:00:41;;;;;;;14.47;6.20;;;;;;;6.29;100.00;101529.75;7397834;19;20417;-60
2022/09/20 02:03:40;;;;;;;12.93;6.10;;;;;;;6.22;100.00;101534.44;7397724;19;20409;-59
2022/09/20 02:06:28;;;;;;;15.13;6.17;;;;;;;6.18;100.00;101536.66;7393473;19;20422;-61
2022/09/20 02:09:32;;;;;;;15.27;7.47;;;;;;;6.07;100.00;101539.34;7398238;19;20411;-52
2022/09/20 02:12:18;;;;;;;13.73;6.57;;;;;;;6.41;100.00;101551.13;7393895;19;20412;-61
2022/09/20 02:14:54;;;;;;;12.20;5.90;;;;;;;6.38;100.00;101553.50;7397002;19;20459;-56
2022/09/20 02:17:31;;;;;;;12.53;7.33;;;;;;;6.07;100.00;101544.47;7392947;19;20782;-62
2022/09/20 02:20:08;;;;;;;17.00;7.00;;;;;;;5.98;100.00;101551.47;7398095;19;20379;-60
2022/09/20 02:23:00;;;;;;;14.77;6.17;;;;;;;5.94;100.00;101562.25;7393383;19;20416;-62
2022/09/20 02:25:41;;;;;;;14.53;7.23;;;;;;;5.88;100.00;101561.78;7394835;19;20485;-56
2022/09/20 02:28:20;;;;;;;20.07;10.17;;;;;;;6.20;100.00;101556.50;7397334;19;20405;-59
2022/09/20 02:30:57;;;;;;;15.53;5.90;;;;;;;6.56;100.00;101551.34;7393120;19;20392;-59
2022/09/20 02:33:56;;;;;;;17.20;5.63;;;;;;;6.43;100.00;101551.25;7396874;19;20383;-58
2022/09/20 02:36:35;;;;;;;15.00;5.93;;;;;;;6.71;100.00;101531.00;7391417;19;20442;-57
2022/09/20 02:39:11;;;;;;;17.20;5.53;;;;;;;6.68;100.00;101517.09;7396665;19;20390;-59
2022/09/20 02:41:53;;;;;;;11.73;6.23;;;;;;;6.27;100.00;101527.09;7392618;19;20443;-55
2022/09/20 02:44:30;;;;;;;11.40;4.70;;;;;;;5.90;100.00;101527.84;7395476;19;20433;-59
2022/09/20 02:47:07;;;;;;;11.80;5.30;;;;;;;5.87;100.00;101542.09;7394076;19;20440;-56
2022/09/20 02:49:47;;;;;;;9.43;4.50;;;;;;;5.91;100.00;101544.09;7397429;19;20398;-57
2022/09/20 02:52:25;;;;;;;9.47;4.80;;;;;;;6.02;100.00;101557.69;7392319;19;20414;-58
2022/09/20 02:55:03;;;;;;;10.63;5.70;;;;;;;6.04;100.00;101543.34;7394869;19;20421;-56
2022/09/20 02:57:38;;;;;;;14.07;5.07;;;;;;;6.05;100.00;101551.16;7391340;19;20404;-57
2022/09/20 03:00:12;;;;;;;18.53;5.57;;;;;;;6.30;100.00;101555.50;7397006;19;20387;-57
2022/09/20 03:02:50;;;;;;;14.97;5.13;;;;;;;6.14;100.00;101553.50;7391590;19;20771;-56
2022/09/20 03:05:27;;;;;;;16.23;5.70;;;;;;;5.89;100.00;101555.94;7394263;19;20417;-56
2022/09/20 03:08:09;;;;;;;11.43;5.67;;;;;;;5.76;100.00;101565.25;7391556;19;20418;-58
2022/09/20 03:10:43;;;;;;;13.83;5.50;;;;;;;5.80;100.00;101571.50;7391827;19;20390;-57
2022/09/20 03:13:19;;;;;;;17.20;4.80;;;;;;;5.78;100.00;101579.06;7395360;19;20394;-59
2022/09/20 03:15:58;;;;;;;11.13;5.47;;;;;;;5.65;100.00;101579.81;7390099;19;20456;-56
2022/09/20 03:18:36;;;;;;;10.33;4.47;;;;;;;5.54;100.00;101588.38;7396227;19;20384;-59
2022/09/20 03:21:18;;;;;;;8.53;4.70;;;;;;;5.50;100.00;101581.22;7391409;19;20412;-60
2022/09/20 03:23:56;;;;;;;15.60;5.00;;;;;;;5.63;100.00;101590.69;7397688;19;20786;-59
2022/09/20 03:26:33;;;;;;;13.00;5.10;;;;;;;5.73;100.00;101593.19;7391089;19;20436;-62
2022/09/20 03:29:06;;;;;;;15.50;4.37;;;;;;;5.67;100.00;101590.16;7395679;19;20397;-55
2022/09/20 03:31:49;;;;;;;8.03;4.50;;;;;;;5.75;100.00;101589.06;7391420;19;20424;-58
2022/09/20 03:34:35;;;;;;;14.23;5.20;;;;;;;5.81;100.00;101586.97;7394287;19;21039;-58
2022/09/20 03:37:21;;;;;;;14.00;5.00;;;;;;;5.77;100.00;101587.53;7390841;19;20435;-57
2022/09/20 03:40:08;;;;;;;8.07;4.50;;;;;;;5.53;100.00;101587.47;7395667;19;20409;-53
2022/09/20 03:42:40;;;;;;;11.63;4.90;;;;;;;5.83;100.00;101601.56;7391114;19;20462;-56
2022/09/20 03:45:42;;;;;;;9.80;5.30;;;;;;;5.76;100.00;101600.22;7393239;19;20418;-59
2022/09/20 03:48:28;;;;;;;12.87;4.83;;;;;;;5.75;100.00;101593.31;7392241;19;20415;-55
2022/09/20 03:51:06;;;;;;;13.83;4.73;;;;;;;5.84;100.00;101587.97;7388531;19;20416;-58
2022/09/20 03:53:54;;;;;;;6.13;4.80;;;;;;;5.56;100.00;101596.13;7394109;19;20424;-60
2022/09/20 03:56:41;;;;;;;9.90;4.87;;;;;;;5.80;100.00;101584.31;7389032;19;20939;-54
2022/09/20 03:59:20;;;;;;;13.00;5.27;;;;;;;5.97;100.00;101588.09;7394690;19;20396;-56
2022/09/20 04:02:05;;;;;;;12.37;5.03;;;;;;;5.86;100.00;101579.63;7389849;19;20416;-62
2022/09/20 04:04:41;;;;;;;10.97;4.33;;;;;;;6.06;100.00;101582.81;7393098;19;20436;-62
2022/09/20 04:07:16;;;;;;;9.37;4.60;;;;;;;5.77;100.00;101578.94;7389484;19;20436;-54
2022/09/20 04:10:01;;;;;;;6.60;4.40;;;;;;;5.65;100.00;101586.59;7394281;19;20417;-58
2022/09/20 04:12:37;;;;;;;9.67;4.83;;;;;;;5.67;100.00;101579.91;7390789;19;20437;-57
2022/09/20 04:15:19;;;;;;;12.43;4.50;;;;;;;5.66;100.00;101580.72;7392332;19;20420;-56
2022/09/20 04:17:55;;;;;;;8.30;4.40;;;;;;;5.77;100.00;101584.06;7389080;19;20452;-59
2022/09/20 04:20:33;;;;;;;8.00;4.80;;;;;;;5.65;100.00;101576.38;7394210;19;20406;-51
2022/09/20 04:23:09;;;;;;;11.23;3.50;;;;;;;5.72;100.00;101583.72;7393396;19;20428;-58
2022/09/20 04:25:43;;;;;;;6.80;3.93;;;;;;;5.81;100.00;101581.84;7386647;19;20444;-56
2022/09/20 04:28:17;;;;;;;9.03;5.03;;;;;;;5.63;100.00;101580.47;7393492;19;20418;-59
2022/09/20 04:30:47;;;;;;;7.03;4.27;;;;;;;5.33;100.00;101578.25;7389121;19;20417;-54
2022/09/20 04:33:21;;;;;;;12.27;5.30;;;;;;;5.09;100.00;101572.16;7392647;19;20833;-53
2022/09/20 04:39:00;;;;;;;15.43;5.63;;;;;;;4.98;100.00;101581.56;7389536;19;20412;-53
2022/09/20 04:41:53;;;;;;;6.30;3.70;;;;;;;5.07;100.00;101599.31;7388738;19;20449;-60
2022/09/20 04:44:47;;;;;;;9.43;4.50;;;;;;;5.12;100.00;101608.19;7394364;19;20437;-59
2022/09/20 04:47:38;;;;;;;14.80;6.40;;;;;;;5.19;100.00;101607.03;7389560;19;20439;-56
2022/09/20 04:50:38;;;;;;;8.00;4.60;;;;;;;5.14;100.00;101604.13;7392750;19;20404;-54
2022/09/20 04:53:23;;;;;;;11.50;5.70;;;;;;;5.22;100.00;101615.84;7395258;19;20447;-60
2022/09/20 04:55:55;;;;;;;14.67;6.00;;;;;;;5.41;100.00;101617.25;7387131;19;20407;-59
2022/09/20 04:58:48;;;;;;;9.67;5.07;;;;;;;5.25;100.00;101623.75;7392774;19;20391;-53
2022/09/20 05:01:50;;;;;;;9.10;4.77;;;;;;;5.22;100.00;101620.94;7387741;19;20432;-57
2022/09/20 05:04:47;;;;;;;8.07;4.37;;;;;;;5.19;100.00;101619.81;7398313;19;20432;-56
2022/09/20 05:07:47;;;;;;;12.57;4.10;;;;;;;5.25;100.00;101617.75;7395297;19;20432;-53
2022/09/20 05:10:40;;;;;;;6.50;4.60;;;;;;;5.42;100.00;101629.25;7403089;19;20399;-55
2022/09/20 05:13:19;;;;;;;9.47;4.70;;;;;;;5.38;100.00;101620.47;7399212;19;20415;-58
2022/09/20 05:15:57;;;;;;;8.40;5.33;;;;;;;5.20;100.00;101621.59;7392691;19;20424;-54
2022/09/20 05:19:08;;;;;;;9.07;4.83;;;;;;;5.25;100.00;101625.41;7399586;19;20375;-54
2022/09/20 05:21:57;;;;;;;9.40;5.40;;;;;;;5.31;100.00;101643.81;7392851;19;20405;-59
2022/09/20 05:24:45;;;;;;;9.43;5.07;;;;;;;5.20;100.00;101642.06;7397795;19;20404;-52
2022/09/20 05:27:24;;;;;;;7.27;4.50;;;;;;;5.30;100.00;101653.91;7394213;19;21275;-61
2022/09/20 05:29:57;;;;;;;5.87;3.70;;;;;;;5.33;100.00;101651.59;7402908;19;20931;-60
2022/09/20 05:32:37;;;;;;;5.90;3.50;;;;;;;5.46;100.00;101648.31;7394644;19;20406;-58
2022/09/20 05:35:14;;;;;;;7.97;4.20;;;;;;;5.48;100.00;101650.22;7396621;19;20412;-60
2022/09/20 05:37:48;;;;;;;10.43;4.67;;;;;;;5.52;100.00;101646.22;7394488;19;21073;-59
2022/09/20 05:40:24;;;;;;;11.77;4.60;;;;;;;5.38;100.00;101652.81;7398632;19;20383;-52
2022/09/20 05:42:59;;;;;;;6.50;4.07;;;;;;;5.15;100.00;101644.28;7393854;19;20779;-55
2022/09/20 05:45:49;;;;;;;12.30;4.87;;;;;;;5.10;100.00;101655.81;7395340;19;20938;-59
2022/09/20 05:48:30;;;;;;;7.63;5.00;;;;;;;5.13;100.00;101656.06;7398921;19;20920;-56
2022/09/20 05:51:01;;;;;;;17.30;8.77;;;;;;;5.27;100.00;101665.72;7394349;19;20433;-58
2022/09/20 05:53:52;;;;;;;54.23;25.00;;;;;;;5.60;100.00;101674.97;7397570;19;20468;-57
2022/09/20 05:56:31;;;;;;;59.77;29.00;;;;;;;5.81;100.00;101683.41;7392722;19;20523;-54
2022/09/20 05:59:16;;;;;;;31.60;15.80;;;;;;;6.03;100.00;101678.25;7397620;19;20386;-56
2022/09/20 06:01:58;;;;;;;40.63;20.67;;;;;;;6.38;100.00;101685.88;7393291;19;20435;-52
2022/09/20 06:04:33;;;;;;;22.93;13.40;;;;;;;6.55;100.00;101676.84;7396385;19;20442;-59
2022/09/20 06:07:08;;;;;;;15.30;7.17;;;;;;;6.56;100.00;101671.84;7392749;19;20429;-54
2022/09/20 06:09:47;;;;;;;15.13;6.97;;;;;;;6.39;100.00;101664.59;7397676;19;20501;-57
2022/09/20 06:12:28;;;;;;;11.53;6.10;;;;;;;6.25;100.00;101655.91;7393359;19;20432;-57
2022/09/20 06:15:02;;;;;;;7.43;3.90;;;;;;;5.99;100.00;101665.09;7397976;19;20429;-58
2022/09/20 06:17:36;;;;;;;10.93;3.70;;;;;;;5.91;100.00;101670.50;7389388;19;20439;-59
2022/09/20 06:20:20;;;;;;;8.33;4.23;;;;;;;5.89;100.00;101678.88;7397755;19;20387;-61
2022/09/20 06:22:52;;;;;;;7.80;4.50;;;;;;;6.01;100.00;101690.00;7392664;19;20416;-55
2022/09/20 06:25:25;;;;;;;6.67;4.50;;;;;;;6.06;100.00;101696.41;7394314;19;20422;-50
2022/09/20 06:27:56;;;;;;;10.27;6.87;;;;;;;6.44;100.00;101700.06;7389812;19;20457;-56
2022/09/20 06:30:28;;;;;;;8.17;5.33;;;;;;;6.83;100.00;101697.72;7397196;19;20392;-62
2022/09/20 06:32:59;;;;;;;10.90;5.90;;;;;;;7.15;100.00;101686.31;7392684;19;20405;-62
2022/09/20 06:35:37;;;;;;;21.50;9.13;;;;;;;7.27;100.00;101681.13;7394624;19;20417;-62
2022/09/20 06:43:49;;;;;;;7.60;3.80;;;;;;;7.19;100.00;101665.97;7397667;19;20423;-53
2022/09/20 06:46:19;;;;;;;12.17;4.90;;;;;;;7.11;100.00;101670.56;7391466;19;20433;-55
2022/09/20 06:48:49;;;;;;;15.07;6.57;;;;;;;7.12;100.00;101673.25;7396555;19;20415;-57
2022/09/20 06:51:21;;;;;;;22.07;9.30;;;;;;;7.13;100.00;101675.03;7391599;19;21082;-56
2022/09/20 06:53:51;;;;;;;20.17;6.80;;;;;;;7.25;100.00;101680.16;7398354;19;20386;-59
2022/09/20 06:56:22;;;;;;;11.70;4.53;;;;;;;7.66;100.00;101686.38;7392058;19;20414;-59
2022/09/20 06:58:52;;;;;;;5.73;3.93;;;;;;;7.36;100.00;101680.88;7396613;19;20952;-60
2022/09/20 07:01:21;;;;;;;5.43;3.23;;;;;;;7.30;100.00;101695.88;7390877;19;20443;-55
2022/09/20 07:03:58;;;;;;;39.63;19.20;;;;;;;7.45;100.00;101695.13;7394887;19;20482;-61
2022/09/20 07:06:30;;;;;;;46.47;24.03;;;;;;;7.94;100.00;101702.75;7390539;19;20407;-61
2022/09/20 07:09:00;;;;;;;76.23;21.23;;;;;;;8.31;100.00;101688.91;7396067;19;20380;-57
2022/09/20 07:11:30;;;;;;;49.60;20.60;;;;;;;7.97;100.00;101680.75;7390899;19;20436;-51
2022/09/20 07:14:00;;;;;;;14.00;5.53;;;;;;;7.89;100.00;101692.16;7394502;19;20412;-54
2022/09/20 07:16:30;;;;;;;8.63;4.50;;;;;;;7.79;100.00;101694.91;7390714;19;20798;-59
2022/09/20 07:18:59;;;;;;;47.63;11.50;;;;;;;7.84;100.00;101706.38;7395487;19;20423;-60
2022/09/20 07:21:31;;;;;;;50.40;16.67;;;;;;;7.84;100.00;101706.38;7390232;19;20439;-53
2022/09/20 07:24:01;;;;;;;11.43;3.60;;;;;;;7.82;100.00;101708.84;7394384;19;20400;-57
2022/09/20 07:26:31;;;;;;;14.83;4.70;;;;;;;7.90;100.00;101719.63;7390533;19;20415;-57
2022/09/20 07:29:01;;;;;;;15.43;3.97;;;;;;;7.88;100.00;101717.75;7395107;19;20407;-56
2022/09/20 07:31:32;;;;;;;29.83;7.33;;;;;;;7.94;100.00;101729.34;7389949;19;20439;-62
2022/09/20 07:34:01;;;;;;;15.43;2.90;;;;;;;7.96;100.00;101738.03;7394164;19;20391;-51
2022/09/20 07:36:33;;;;;;;12.50;3.67;;;;;;;8.04;100.00;101745.38;7388662;19;20435;-57
2022/09/20 07:39:02;;;;;;;8.50;3.50;;;;;;;8.13;100.00;101745.09;7395260;19;20383;-61
2022/09/20 07:41:32;;;;;;;7.30;3.50;;;;;;;8.20;100.00;101742.19;7390301;19;20395;-60
2022/09/20 07:44:19;;;;;;;13.20;3.80;;;;;;;8.21;100.00;101744.84;7396133;19;20408;-60
2022/09/20 07:46:49;;;;;;;7.97;3.73;;;;;;;8.32;100.00;101752.41;7390057;19;20411;-61
2022/09/20 07:49:20;;;;;;;14.47;3.30;;;;;;;8.35;100.00;101752.59;7399077;19;20400;-56
2022/09/20 07:51:52;;;;;;;15.10;3.37;;;;;;;8.40;100.00;101743.50;7390118;19;20419;-58
2022/09/20 07:54:22;;;;;;;11.10;4.00;;;;;;;8.45;100.00;101743.81;7393151;19;20415;-58
2022/09/20 07:56:51;;;;;;;16.97;4.57;;;;;;;8.55;100.00;101750.50;7388691;19;20435;-51
2022/09/20 07:59:21;;;;;;;9.93;3.90;;;;;;;8.66;100.00;101749.50;7394353;19;20781;-60
2022/09/20 08:01:50;;;;;;;16.03;5.50;;;;;;;8.75;100.00;101755.28;7388734;19;20403;-58
2022/09/20 08:04:19;;;;;;;14.50;5.40;;;;;;;8.83;100.00;101755.78;7392808;19;20945;-53
2022/09/20 08:06:51;;;;;;;11.00;3.00;;;;;;;8.92;100.00;101737.44;7389806;19;20415;-61
2022/09/20 08:09:21;;;;;;;14.40;4.23;;;;;;;9.05;100.00;101749.41;7394022;19;20379;-57
2022/09/20 08:11:51;;;;;;;36.17;8.27;;;;;;;9.12;100.00;101753.28;7388737;19;20407;-59
2022/09/20 08:14:20;;;;;;;21.03;5.83;;;;;;;9.17;100.00;101749.28;7393331;19;20419;-55
2022/09/20 08:16:51;;;;;;;42.73;11.33;;;;;;;9.23;100.00;101741.97;7388943;19;20407;-55
2022/09/20 08:19:22;;;;;;;21.30;5.60;;;;;;;9.29;100.00;101737.19;7391756;19;20401;-57
2022/09/20 08:21:54;;;;;;;16.30;4.00;;;;;;;9.40;100.00;101742.13;7388683;19;20988;-54
2022/09/20 08:24:25;;;;;;;15.80;3.20;;;;;;;9.42;100.00;101732.81;7396645;19;20432;-57
2022/09/20 08:26:54;;;;;;;31.03;7.50;;;;;;;9.52;100.00;101721.38;7389546;19;20774;-61
2022/09/20 08:29:24;;;;;;;51.57;12.70;;;;;;;9.47;100.00;101697.94;7393110;19;20383;-60
2022/09/20 08:31:57;;;;;;;9.73;2.40;;;;;;;9.55;100.00;101690.69;7388974;19;20412;-54
2022/09/20 08:34:26;;;;;;;9.03;2.90;;;;;;;9.63;100.00;101680.84;7392093;19;20956;-56
2022/09/20 08:36:58;;;;;;;39.30;15.83;;;;;;;9.68;100.00;101676.81;7387867;19;20966;-49
2022/09/20 08:39:27;;;;;;;17.47;5.43;;;;;;;9.66;100.00;101648.41;7391159;19;20755;-62
2022/09/20 08:42:26;;;;;;;15.63;2.60;;;;;;;9.79;100.00;101659.47;7388708;19;21176;-61
2022/09/20 08:44:59;;;;;;;38.03;11.50;;;;;;;9.82;100.00;101634.75;7395320;19;20427;-63
2022/09/20 08:47:34;;;;;;;18.83;4.60;;;;;;;9.93;100.00;101631.91;7388952;19;21020;-59
2022/09/20 08:50:06;;;;;;;17.47;5.67;;;;;;;9.99;100.00;101652.88;7393113;19;20399;-60
2022/09/20 08:52:42;;;;;;;16.93;6.07;;;;;;;10.01;100.00;101625.50;7387219;19;20539;-60
2022/09/20 08:55:16;;;;;;;31.87;6.63;;;;;;;10.14;100.00;101632.25;7391121;19;20423;-62
2022/09/20 08:57:47;;;;;;;8.37;1.60;;;;;;;10.10;100.00;101618.28;7387136;19;20435;-59
2022/09/20 09:00:19;;;;;;;16.10;3.63;;;;;;;10.05;100.00;101560.41;7392995;19;20417;-61
2022/09/20 09:02:49;;;;;;;12.43;2.03;;;;;;;10.10;100.00;101559.00;7386033;19;20439;-59
2022/09/20 09:05:31;;;;;;;14.87;1.67;;;;;;;10.05;100.00;101550.09;7390532;19;20762;-57
2022/09/20 09:08:06;;;;;;;11.67;2.70;;;;;;;10.07;100.00;101506.38;7392119;19;20414;-57
2022/09/20 09:10:40;;;;;;;9.13;2.03;;;;;;;10.09;100.00;101494.44;7388299;19;20383;-57
2022/09/20 09:13:19;;;;;;;14.00;4.43;;;;;;;10.13;100.00;101476.66;7392171;19;20376;-55
2022/09/20 09:15:56;;;;;;;11.97;2.20;;;;;;;10.24;100.00;101463.44;7388324;19;20415;-58
2022/09/20 09:18:34;;;;;;;11.57;2.33;;;;;;;10.35;100.00;101440.81;7391268;19;20411;-54
2022/09/20 09:21:06;;;;;;;14.97;4.40;;;;;;;10.56;100.00;101446.25;7387831;19;20922;-60
2022/09/20 09:23:43;;;;;;;11.73;2.40;;;;;;;10.51;100.00;101421.94;7391222;19;20381;-55
2022/09/20 09:26:21;;;;;;;19.20;6.00;;;;;;;10.59;100.00;101397.41;7387302;19;20419;-56
2022/09/20 09:29:16;;;;;;;32.73;15.70;;;;;;;10.93;100.00;101390.50;7391676;19;20395;-59
2022/09/20 09:31:46;;;;;;;10.00;4.17;;;;;;;10.89;100.00;101371.41;7386660;19;20405;-58
2022/09/20 09:34:27;;;;;;;19.80;6.50;;;;;;;10.87;100.00;101347.19;7390159;19;20769;-57
2022/09/20 09:36:58;;;;;;;41.33;17.30;;;;;;;10.87;100.00;101310.19;7386309;19;20418;-60
2022/09/20 09:39:31;;;;;;;32.23;10.33;;;;;;;10.97;100.00;101288.28;7390114;19;20377;-56
2022/09/20 09:42:01;;;;;;;23.40;7.67;;;;;;;11.15;100.00;101267.59;7387002;19;20417;-57
2022/09/20 09:44:32;;;;;;;13.63;3.43;;;;;;;10.90;100.00;101251.84;7393553;19;20453;-62
2022/09/20 09:47:02;;;;;;;13.30;5.00;;;;;;;10.67;100.00;101240.41;7386389;19;20435;-60
2022/09/20 09:49:34;;;;;;;14.13;2.37;;;;;;;10.59;100.00;101234.84;7393159;19;20417;-61
2022/09/20 09:52:08;;;;;;;18.13;6.03;;;;;;;10.82;100.00;101219.56;7393192;19;20420;-59
2022/09/20 09:54:43;;;;;;;6.90;2.40;;;;;;;11.02;100.00;101207.63;7396623;19;20440;-58
2022/09/20 09:57:22;;;;;;;22.57;6.73;;;;;;;11.07;100.00;101207.84;7393243;19;20417;-58
2022/09/20 10:00:11;;;;;;;15.50;5.43;;;;;;;10.99;100.00;101191.09;7399752;19;20417;-58
2022/09/20 10:03:00;;;;;;;12.57;2.40;;;;;;;11.23;100.00;101187.91;7392780;19;20500;-58
2022/09/20 10:05:33;;;;;;;10.20;2.33;;;;;;;11.26;100.00;101193.19;7395507;19;20433;-58
2022/09/20 10:08:14;;;;;;;20.20;7.53;;;;;;;11.27;100.00;101195.00;7397338;19;20432;-61
2022/09/20 10:10:58;;;;;;;6.23;1.93;;;;;;;11.30;100.00;101195.13;7392553;19;20423;-58
2022/09/20 10:13:31;;;;;;;13.07;4.23;;;;;;;11.26;100.00;101198.34;7397468;19;20497;-53
2022/09/20 10:16:16;;;;;;;11.80;4.10;;;;;;;11.28;100.00;101209.66;7392724;19;21285;-54
2022/09/20 10:18:51;;;;;;;9.63;2.30;;;;;;;11.12;100.00;101224.44;7396774;19;20390;-57
2022/09/20 10:21:31;;;;;;;11.20;3.20;;;;;;;11.19;100.00;101226.50;7392673;19;20442;-57
2022/09/20 10:24:12;;;;;;;6.93;1.93;;;;;;;11.11;100.00;101245.91;7394043;19;20437;-63
2022/09/20 10:27:10;;;;;;;45.60;11.03;;;;;;;11.28;100.00;101240.66;7392267;19;20425;-59
2022/09/20 10:29:51;;;;;;;19.57;2.70;;;;;;;11.38;100.00;101248.00;7394932;19;20393;-57
2022/09/20 10:32:38;;;;;;;6.27;1.60;;;;;;;11.41;100.00;101255.91;7392665;19;20475;-57
2022/09/20 10:35:24;;;;;;;56.23;15.00;;;;;;;11.46;100.00;101264.78;7395130;19;20414;-57
2022/09/20 10:38:07;;;;;;;41.37;12.03;;;;;;;11.47;100.00;101282.03;7391570;19;20414;-60
2022/09/20 10:43:40;;;;;;;20.90;4.40;;;;;;;11.48;100.00;101308.75;7395567;19;20400;-58
2022/09/20 10:46:16;;;;;;;7.63;1.67;;;;;;;11.61;100.00;101310.22;7391998;19;20419;-57
2022/09/20 10:49:06;;;;;;;22.07;4.80;;;;;;;11.36;100.00;101319.41;7396737;19;20434;-54
2022/09/20 10:51:44;;;;;;;6.20;2.27;;;;;;;11.66;100.00;101318.19;7390659;19;20445;-60
2022/09/20 10:54:25;;;;;;;11.10;1.97;;;;;;;11.83;100.00;101301.75;7395479;19;20795;-58
2022/09/20 10:57:04;;;;;;;12.83;3.30;;;;;;;11.78;100.00;101315.28;7391878;19;20407;-55
2022/09/20 10:59:45;;;;;;;26.07;6.87;;;;;;;11.80;100.00;101342.97;7394988;19;20383;-49
2022/09/20 11:02:22;;;;;;;10.80;2.53;;;;;;;11.66;100.00;101344.94;7390821;19;20933;-56
2022/09/20 11:05:21;;;;;;;14.33;2.80;;;;;;;11.74;100.00;101337.50;7394356;19;21001;-54
2022/09/20 11:07:58;;;;;;;10.33;2.20;;;;;;;11.85;100.00;101325.97;7389735;19;20413;-58
2022/09/20 11:10:30;;;;;;;13.87;3.17;;;;;;;12.09;100.00;101314.09;7393601;19;20391;-52
2022/09/20 11:13:02;;;;;;;13.37;4.07;;;;;;;12.09;100.00;101330.50;7395124;19;20405;-59
2022/09/20 11:15:38;;;;;;;11.00;1.83;;;;;;;11.99;100.00;101375.72;7393575;19;20437;-52
2022/09/20 11:18:12;;;;;;;7.73;2.07;;;;;;;12.22;100.00;101363.00;7395058;19;20439;-57
2022/09/20 11:20:46;;;;;;;5.23;1.00;;;;;;;12.05;100.00;101394.97;7388853;19;20426;-55
2022/09/20 11:23:19;;;;;;;7.00;1.30;;;;;;;12.04;100.00;101404.41;7394885;19;20404;-55
2022/09/20 11:25:51;;;;;;;4.93;1.37;;;;;;;12.10;100.00;101409.88;7388673;19;20417;-60
2022/09/20 11:28:24;;;;;;;8.83;1.53;;;;;;;12.12;100.00;101405.69;7395517;19;20393;-57
2022/09/20 11:31:01;;;;;;;5.13;1.40;;;;;;;12.35;100.00;101387.69;7390912;19;20420;-59
2022/09/20 11:33:35;;;;;;;7.93;1.40;;;;;;;12.47;100.00;101389.97;7394691;19;20384;-56
2022/09/20 11:36:12;;;;;;;8.13;1.83;;;;;;;12.35;100.00;101410.13;7389715;19;20464;-61
2022/09/20 11:38:47;;;;;;;6.33;1.83;;;;;;;12.21;100.00;101433.63;7394951;19;20939;-59
2022/09/20 11:41:24;;;;;;;9.80;1.67;;;;;;;12.12;100.00;101430.63;7390470;19;20943;-58
2022/09/20 11:43:54;;;;;;;8.93;1.37;;;;;;;11.98;100.00;101423.09;7395921;19;20389;-58
2022/09/20 11:46:30;;;;;;;5.37;1.40;;;;;;;11.65;100.00;101440.47;7390340;19;20415;-57
2022/09/20 11:49:02;;;;;;;17.30;3.80;;;;;;;11.62;100.00;101438.63;7394825;19;20405;-56
2022/09/20 11:51:45;;;;;;;9.63;2.50;;;;;;;11.60;100.00;101419.59;7390009;19;20431;-57
2022/09/20 11:54:26;;;;;;;12.23;2.30;;;;;;;11.55;100.00;101419.38;7393569;19;20414;-58
2022/09/20 11:56:58;;;;;;;26.77;6.07;;;;;;;11.60;100.00;101404.94;7390282;19;20422;-55
2022/09/20 11:59:36;;;;;;;10.03;1.57;;;;;;;11.93;100.00;101413.34;7394298;19;20951;-53
2022/09/20 12:02:19;;;;;;;7.57;1.80;;;;;;;12.35;100.00;101442.03;7389614;19;21052;-55
2022/09/20 12:04:52;;;;;;;11.87;2.97;;;;;;;12.61;100.00;101428.50;7392616;19;20744;-59
2022/09/20 12:07:25;;;;;;;12.13;2.07;;;;;;;12.81;100.00;101432.84;7390697;19;20518;-56
2022/09/20 12:09:57;;;;;;;19.27;5.10;;;;;;;12.85;100.00;101445.91;7393701;19;20411;-61
2022/09/20 12:12:36;;;;;;;21.80;4.83;;;;;;;12.95;100.00;101463.63;7387879;19;21081;-57
2022/09/20 12:15:08;;;;;;;9.50;1.73;;;;;;;13.13;100.00;101465.25;7392207;19;20436;-57
2022/09/20 12:18:14;;;;;;;9.07;2.00;;;;;;;13.14;100.00;101479.97;7389428;19;20407;-58